Time;durP1;ratioP1;P1;durP2;ratioP2;P2;SDS_P1;SDS_P2;PMS_P1;PMS_P2;Temp;Humidity;BMP_temperature;BMP_pressure;BME280_temperature;BME280_humidity;BME280_pressure;Samples;Min_cycle;Max_cycle;Signal;HPM_P1;HPM_P2
2023/09/11 00:03:11;;;;;;;21.67;13.07;;;;;;;20.29;69.45;100346.59;10223993;28;20667;-77
2023/09/11 00:08:14;;;;;;;20.27;12.35;;;;;;;20.42;69.18;100346.78;10226495;28;20062;-78
2023/09/11 00:13:17;;;;;;;14.90;12.25;;;;;;;20.29;68.86;100344.69;10223921;28;20085;-78
2023/09/11 00:18:23;;;;;;;21.10;12.18;;;;;;;20.20;69.69;100342.28;10228187;28;20490;-78
2023/09/11 00:23:26;;;;;;;19.38;11.70;;;;;;;20.30;68.79;100338.22;10233392;28;20434;-77
2023/09/11 00:28:29;;;;;;;16.90;11.25;;;;;;;20.31;68.72;100336.38;10231336;28;20102;-78
2023/09/11 00:33:34;;;;;;;20.30;12.18;;;;;;;20.36;68.94;100327.63;10214615;28;20059;-78
2023/09/11 00:38:37;;;;;;;16.65;11.60;;;;;;;20.39;68.78;100325.34;10225843;28;20202;-79
2023/09/11 00:43:40;;;;;;;17.33;11.30;;;;;;;20.39;68.45;100330.81;10231282;28;20475;-78
2023/09/11 00:48:44;;;;;;;16.58;11.80;;;;;;;20.39;68.29;100310.88;10231760;28;20047;-78
2023/09/11 00:53:48;;;;;;;16.88;11.63;;;;;;;20.27;68.29;100310.50;10224557;28;20043;-78
2023/09/11 00:58:51;;;;;;;21.90;13.05;;;;;;;20.22;68.24;100304.75;10229350;28;20141;-77
2023/09/11 01:03:56;;;;;;;19.02;12.18;;;;;;;20.13;68.85;100301.28;10231991;28;21286;-77
2023/09/11 01:08:59;;;;;;;20.52;12.52;;;;;;;19.88;69.79;100308.88;10238838;28;20058;-77
2023/09/11 01:14:02;;;;;;;22.85;12.30;;;;;;;19.78;70.31;100301.00;10249069;28;20054;-78
2023/09/11 01:19:18;;;;;;;19.52;12.40;;;;;;;19.80;70.38;100293.50;10236821;28;20059;-79
2023/09/11 01:25:07;;;;;;;20.77;12.00;;;;;;;19.69;70.49;100299.38;10229698;28;20058;-78
2023/09/11 01:30:13;;;;;;;17.55;12.52;;;;;;;19.74;70.17;100287.91;10239567;28;20524;-78
2023/09/11 01:35:16;;;;;;;18.52;12.90;;;;;;;19.63;70.35;100289.22;10231286;28;20054;-78
2023/09/11 01:40:20;;;;;;;19.27;13.07;;;;;;;19.66;70.43;100294.28;10248317;28;20055;-77
2023/09/11 01:45:25;;;;;;;18.10;12.10;;;;;;;19.77;70.02;100291.09;10231400;28;20047;-77
2023/09/11 01:50:30;;;;;;;20.30;13.10;;;;;;;19.81;69.89;100291.59;10232949;28;20426;-78
2023/09/11 01:55:33;;;;;;;19.58;12.65;;;;;;;19.56;70.73;100283.69;10249978;28;20208;-77
2023/09/11 02:00:38;;;;;;;18.90;13.15;;;;;;;19.66;70.28;100280.69;10228676;28;20121;-77
2023/09/11 02:05:41;;;;;;;20.88;12.00;;;;;;;19.77;69.95;100277.47;10222181;28;20054;-77
2023/09/11 02:10:44;;;;;;;18.10;12.82;;;;;;;19.71;69.50;100277.41;10232749;28;20105;-77
2023/09/11 02:15:48;;;;;;;15.93;12.40;;;;;;;19.72;69.52;100276.34;10230112;28;20050;-78
2023/09/11 02:20:51;;;;;;;17.05;11.57;;;;;;;19.72;68.91;100263.59;10224504;28;20062;-78
2023/09/11 02:25:55;;;;;;;14.48;12.13;;;;;;;19.54;69.48;100263.06;10224301;28;20711;-78
2023/09/11 02:30:59;;;;;;;22.52;13.02;;;;;;;19.53;69.45;100255.91;10231972;28;20058;-78
2023/09/11 02:36:02;;;;;;;17.88;12.25;;;;;;;19.50;69.86;100254.44;10224751;28;20138;-77
2023/09/11 02:41:05;;;;;;;15.75;12.10;;;;;;;19.33;69.71;100253.72;10236675;28;20528;-78
2023/09/11 02:46:14;;;;;;;19.17;12.73;;;;;;;19.29;70.01;100249.69;10229435;28;20050;-79
2023/09/11 02:51:17;;;;;;;21.33;12.15;;;;;;;19.24;69.81;100241.22;10240466;28;21796;-78
2023/09/11 02:56:20;;;;;;;20.50;12.65;;;;;;;19.25;70.52;100248.34;10219556;28;21322;-79
2023/09/11 03:01:24;;;;;;;22.88;12.52;;;;;;;19.19;70.88;100246.38;10223370;28;20046;-78
2023/09/11 03:06:27;;;;;;;21.80;14.35;;;;;;;19.00;71.38;100250.47;10227930;28;20145;-78
2023/09/11 03:11:30;;;;;;;20.60;14.50;;;;;;;18.97;71.56;100248.09;10226756;28;20393;-79
2023/09/11 03:16:35;;;;;;;20.42;14.75;;;;;;;18.68;72.94;100249.66;10233065;28;20050;-78
2023/09/11 03:21:38;;;;;;;26.92;15.50;;;;;;;18.71;73.47;100240.28;10234565;28;20194;-79
2023/09/11 03:26:41;;;;;;;19.70;15.00;;;;;;;18.80;72.84;100240.06;10235193;28;20062;-78
2023/09/11 03:31:46;;;;;;;19.95;15.77;;;;;;;18.66;73.82;100238.09;10229968;28;20054;-77
2023/09/11 03:36:49;;;;;;;23.85;14.60;;;;;;;18.72;73.85;100231.09;10232758;28;20134;-79
2023/09/11 03:41:53;;;;;;;19.70;13.85;;;;;;;18.87;72.92;100231.16;10261625;28;21075;-76
2023/09/11 03:46:57;;;;;;;28.33;16.55;;;;;;;18.89;72.58;100221.78;10243515;28;20894;-79
2023/09/11 03:52:00;;;;;;;25.15;17.67;;;;;;;18.60;74.15;100219.78;10248739;28;20043;-79
2023/09/11 03:57:04;;;;;;;24.95;17.73;;;;;;;18.55;74.62;100219.47;10257234;28;20112;-79
2023/09/11 04:02:09;;;;;;;26.88;16.30;;;;;;;18.63;74.54;100218.59;10260870;28;20093;-79
2023/09/11 04:07:12;;;;;;;29.17;16.63;;;;;;;18.75;74.19;100212.53;10241641;28;20046;-78
2023/09/11 04:12:16;;;;;;;26.98;16.17;;;;;;;18.82;73.67;100206.41;10256295;28;20521;-78
2023/09/11 04:17:22;;;;;;;23.08;15.98;;;;;;;18.86;73.28;100213.16;10240378;28;20047;-77
2023/09/11 04:22:25;;;;;;;23.95;15.98;;;;;;;18.82;72.98;100211.84;10250982;28;20141;-77
2023/09/11 04:27:28;;;;;;;25.88;16.90;;;;;;;18.82;73.00;100203.69;10258664;28;20047;-79
2023/09/11 04:32:33;;;;;;;21.45;15.38;;;;;;;18.80;72.74;100201.13;10287781;28;20035;-77
2023/09/11 04:37:36;;;;;;;28.00;16.55;;;;;;;18.62;72.99;100201.41;10268611;28;20058;-75
2023/09/11 04:42:42;;;;;;;25.15;14.40;;;;;;;18.75;73.85;100198.91;10285940;28;21109;-77
2023/09/11 04:47:46;;;;;;;23.23;15.43;;;;;;;18.92;72.82;100206.97;10277369;28;20158;-77
2023/09/11 04:52:50;;;;;;;25.30;15.68;;;;;;;18.79;73.76;100202.16;10291978;28;20057;-76
2023/09/11 04:57:53;;;;;;;27.38;15.27;;;;;;;18.81;72.75;100210.97;10279621;28;20051;-77
2023/09/11 05:02:57;;;;;;;23.95;15.82;;;;;;;18.42;74.40;100214.63;10269777;28;20047;-77
2023/09/11 05:08:00;;;;;;;21.80;16.30;;;;;;;18.41;75.06;100201.22;10273337;28;20047;-78
2023/09/11 05:13:03;;;;;;;23.20;14.23;;;;;;;18.58;74.21;100206.34;10282855;28;20042;-78
2023/09/11 05:18:10;;;;;;;23.73;15.40;;;;;;;18.77;73.47;100206.91;10290288;28;20060;-78
2023/09/11 05:23:14;;;;;;;22.92;14.30;;;;;;;18.80;73.10;100207.41;10289969;28;20039;-78
2023/09/11 05:28:17;;;;;;;24.73;13.80;;;;;;;18.91;73.03;100200.69;10268670;28;20049;-78
2023/09/11 05:33:21;;;;;;;17.83;13.32;;;;;;;19.12;72.12;100205.44;10282124;28;20173;-77
2023/09/11 05:38:24;;;;;;;20.77;14.68;;;;;;;19.12;71.31;100213.63;10272139;28;20119;-77
2023/09/11 05:43:27;;;;;;;18.40;13.02;;;;;;;19.06;72.31;100208.03;10250248;28;20132;-77
2023/09/11 05:48:32;;;;;;;27.15;14.48;;;;;;;19.04;71.89;100213.69;10268353;28;20055;-78
2023/09/11 05:53:35;;;;;;;22.08;13.48;;;;;;;19.02;72.66;100213.84;10250347;28;20069;-80
2023/09/11 05:58:38;;;;;;;26.63;15.13;;;;;;;19.18;71.97;100222.91;10256084;28;20050;-78
2023/09/11 06:03:43;;;;;;;36.53;16.67;;;;;;;19.29;71.61;100221.63;10238567;28;20079;-79
2023/09/11 06:08:47;;;;;;;27.88;14.68;;;;;;;19.08;71.99;100225.88;10242232;28;20078;-78
2023/09/11 06:13:49;;;;;;;25.35;14.55;;;;;;;18.85;72.95;100227.81;10253123;28;20135;-79
2023/09/11 06:18:54;;;;;;;26.80;16.65;;;;;;;19.07;72.65;100232.38;10236927;28;20470;-78
2023/09/11 06:23:57;;;;;;;24.08;14.45;;;;;;;19.25;72.33;100234.75;10238303;28;20573;-79
2023/09/11 06:29:00;;;;;;;29.98;15.52;;;;;;;19.54;71.50;100227.66;10236396;28;20466;-79
2023/09/11 06:34:04;;;;;;;31.73;14.80;;;;;;;19.79;70.91;100229.09;10233843;28;20054;-78
2023/09/11 06:39:07;;;;;;;28.45;15.70;;;;;;;19.95;69.90;100230.78;10227462;28;20055;-78
2023/09/11 06:44:10;;;;;;;30.80;15.07;;;;;;;20.39;69.39;100231.78;10223488;28;20111;-78
2023/09/11 06:49:14;;;;;;;26.60;14.57;;;;;;;20.53;68.69;100223.53;10222523;28;20755;-78
2023/09/11 06:54:17;;;;;;;29.60;15.45;;;;;;;20.66;68.52;100219.25;10223878;28;20050;-78
2023/09/11 06:59:20;;;;;;;26.67;14.93;;;;;;;21.16;67.70;100212.81;10230191;28;20047;-79
2023/09/11 07:04:25;;;;;;;33.03;15.07;;;;;;;21.26;66.72;100211.63;10236060;28;20039;-78
2023/09/11 07:09:28;;;;;;;24.40;14.25;;;;;;;21.55;65.57;100207.81;10266384;28;20054;-77
2023/09/11 07:14:31;;;;;;;30.90;13.80;;;;;;;21.96;64.77;100204.28;10242127;28;20050;-79
2023/09/11 07:19:35;;;;;;;27.55;13.18;;;;;;;22.09;63.42;100207.91;10233745;28;20051;-77
2023/09/11 07:24:38;;;;;;;26.23;13.20;;;;;;;22.41;63.80;100205.50;10232719;28;20520;-77
2023/09/11 07:29:41;;;;;;;22.65;12.38;;;;;;;22.66;62.94;100205.81;10234737;28;20053;-75
2023/09/11 07:34:46;;;;;;;30.80;12.95;;;;;;;22.91;61.57;100208.78;10247738;28;20070;-79
2023/09/11 07:39:49;;;;;;;24.90;12.13;;;;;;;23.00;60.21;100203.94;10248112;28;21162;-78
2023/09/11 07:44:52;;;;;;;27.05;11.95;;;;;;;22.88;61.40;100208.38;10246601;28;20070;-78
2023/09/11 07:49:56;;;;;;;21.95;12.00;;;;;;;23.01;61.30;100205.63;10253439;28;20066;-79
2023/09/11 07:54:59;;;;;;;29.52;11.48;;;;;;;23.63;59.79;100193.34;10246358;28;20054;-77
2023/09/11 08:00:04;;;;;;;28.25;11.18;;;;;;;23.93;59.84;100201.06;10242192;28;20047;-78
2023/09/11 08:05:09;;;;;;;26.65;11.20;;;;;;;24.05;59.08;100191.13;10201084;28;1080109;-77
2023/09/11 08:10:12;;;;;;;22.42;10.02;;;;;;;24.38;58.26;100192.88;10236791;28;20091;-78
2023/09/11 08:15:15;;;;;;;22.27;10.55;;;;;;;25.01;55.84;100200.22;10229925;28;20054;-77
2023/09/11 08:20:19;;;;;;;22.60;9.52;;;;;;;25.54;54.98;100199.78;10222951;28;20075;-77
2023/09/11 08:25:22;;;;;;;26.58;9.85;;;;;;;25.22;55.33;100189.97;10216094;28;20070;-77
2023/09/11 08:30:25;;;;;;;28.10;10.07;;;;;;;25.82;54.18;100184.69;10222127;28;20430;-77
2023/09/11 08:35:30;;;;;;;25.15;8.68;;;;;;;26.16;53.78;100187.84;10223047;28;20043;-77
2023/09/11 08:40:33;;;;;;;25.08;9.02;;;;;;;26.63;52.03;100180.66;10230555;28;20058;-77
2023/09/11 08:45:37;;;;;;;21.08;8.68;;;;;;;26.84;51.47;100182.03;10227106;28;20058;-76
2023/09/11 08:50:45;;;;;;;20.85;8.50;;;;;;;27.11;50.93;100176.91;10223045;28;20069;-76
2023/09/11 08:55:49;;;;;;;22.58;8.60;;;;;;;27.48;50.97;100184.13;10229988;28;20502;-77
2023/09/11 09:00:53;;;;;;;24.52;9.07;;;;;;;27.88;50.58;100183.34;10229201;28;20506;-77
2023/09/11 09:05:58;;;;;;;25.52;8.50;;;;;;;27.84;49.93;100181.06;10238073;28;20070;-76
2023/09/11 09:11:02;;;;;;;21.52;9.80;;;;;;;28.17;48.53;100178.72;10234836;28;20542;-77
2023/09/11 09:16:05;;;;;;;17.88;7.18;;;;;;;28.67;47.07;100180.78;10232172;28;20051;-76
2023/09/11 09:21:09;;;;;;;17.98;9.23;;;;;;;28.87;47.86;100178.38;10229818;28;20152;-78
2023/09/11 09:26:12;;;;;;;23.95;8.73;;;;;;;28.81;47.03;100173.00;10232724;28;20678;-76
2023/09/11 09:31:25;;;;;;;20.50;7.95;;;;;;;28.99;47.07;100172.78;10223173;28;20078;-76
2023/09/11 09:36:30;;;;;;;25.33;7.93;;;;;;;28.98;47.41;100173.84;10226367;28;20051;-76
2023/09/11 09:41:32;;;;;;;20.35;8.15;;;;;;;29.49;46.46;100168.28;10219593;28;20082;-77
2023/09/11 09:46:42;;;;;;;17.10;7.15;;;;;;;29.66;46.45;100162.75;10222384;28;20141;-76
2023/09/11 09:51:47;;;;;;;20.10;8.05;;;;;;;30.09;45.56;100158.25;10236156;28;20175;-77
2023/09/11 09:56:50;;;;;;;24.15;7.95;;;;;;;29.85;46.41;100157.72;10222277;28;20051;-77
2023/09/11 10:01:53;;;;;;;20.58;8.05;;;;;;;30.59;45.09;100149.69;10220565;28;20058;-77
2023/09/11 10:06:58;;;;;;;27.42;8.25;;;;;;;30.50;45.05;100148.50;10219396;28;20067;-77
2023/09/11 10:12:04;;;;;;;15.85;8.02;;;;;;;30.41;44.37;100137.03;10219087;28;20066;-77
2023/09/11 10:17:07;;;;;;;15.85;7.30;;;;;;;30.69;43.81;100135.94;10234020;28;20142;-77
2023/09/11 10:22:11;;;;;;;19.55;7.18;;;;;;;31.36;43.31;100117.00;10220028;28;20059;-77
2023/09/11 10:27:14;;;;;;;19.73;7.15;;;;;;;31.66;42.35;100118.28;10225504;28;20073;-77
2023/09/11 10:32:21;;;;;;;16.25;6.80;;;;;;;31.79;41.70;100109.47;10220749;28;20659;-76
2023/09/11 10:37:26;;;;;;;15.27;6.95;;;;;;;31.35;42.22;100113.41;10227780;28;20083;-77
2023/09/11 10:42:29;;;;;;;26.08;7.63;;;;;;;30.97;42.92;100103.44;10226657;28;20051;-76
2023/09/11 10:47:32;;;;;;;14.93;7.45;;;;;;;31.94;41.11;100101.16;10224075;28;20051;-76
2023/09/11 10:52:37;;;;;;;15.23;6.85;;;;;;;31.77;41.21;100100.56;10227117;28;20057;-77
2023/09/11 10:57:40;;;;;;;16.10;6.85;;;;;;;32.30;39.79;100092.94;10228727;28;20517;-77
2023/09/11 11:02:44;;;;;;;17.20;6.32;;;;;;;33.59;38.61;100088.88;10225422;28;20062;-77
2023/09/11 11:07:50;;;;;;;17.70;6.45;;;;;;;33.69;38.34;100085.25;10233225;28;20550;-77
2023/09/11 11:13:05;;;;;;;13.48;6.07;;;;;;;33.29;37.63;100082.31;10228500;28;20059;-77
2023/09/11 11:18:11;;;;;;;17.45;6.20;;;;;;;33.30;38.18;100075.63;10224281;28;20611;-78
2023/09/11 11:23:15;;;;;;;15.75;6.45;;;;;;;33.51;37.26;100068.00;10231124;28;20066;-75
2023/09/11 11:28:22;;;;;;;15.80;5.97;;;;;;;34.09;36.59;100061.94;10229630;28;20049;-77
2023/09/11 11:33:26;;;;;;;14.02;6.10;;;;;;;34.61;35.57;100052.03;10224519;28;20051;-78
2023/09/11 11:38:31;;;;;;;22.05;7.75;;;;;;;33.63;37.13;100048.25;10226251;28;20043;-77
2023/09/11 11:43:34;;;;;;;17.80;5.78;;;;;;;34.04;36.39;100048.00;10211459;28;20050;-76
2023/09/11 11:48:37;;;;;;;15.27;6.30;;;;;;;35.30;35.29;100038.75;10211169;28;20047;-77
2023/09/11 11:53:42;;;;;;;10.30;5.60;;;;;;;34.72;34.14;100040.78;10242950;28;20817;-76
2023/09/11 11:58:45;;;;;;;14.55;5.82;;;;;;;34.32;35.09;100038.03;10221786;28;20750;-77
2023/09/11 12:03:50;;;;;;;16.00;5.75;;;;;;;33.60;36.58;100040.44;10219611;28;20075;-78
2023/09/11 12:08:55;;;;;;;9.88;5.70;;;;;;;34.14;36.72;100036.78;10226176;28;20047;-76
2023/09/11 12:13:58;;;;;;;12.77;6.18;;;;;;;34.66;35.37;100036.38;10226387;28;20670;-76
2023/09/11 12:19:01;;;;;;;9.35;5.45;;;;;;;33.87;36.27;100039.19;10231637;28;20797;-76
2023/09/11 12:24:08;;;;;;;10.57;5.30;;;;;;;34.04;35.49;100034.06;10232888;28;20419;-76
2023/09/11 12:29:12;;;;;;;15.43;6.60;;;;;;;33.99;36.11;100025.75;10234792;28;20058;-77
2023/09/11 12:34:15;;;;;;;14.95;5.68;;;;;;;34.53;34.15;100026.69;10237145;28;20058;-76
2023/09/11 12:39:19;;;;;;;7.07;5.00;;;;;;;35.32;33.19;100026.44;10233159;28;20069;-77
2023/09/11 12:44:23;;;;;;;7.68;4.82;;;;;;;35.86;33.07;100020.41;10231812;28;20054;-76
2023/09/11 12:49:26;;;;;;;11.45;5.82;;;;;;;36.12;31.66;100006.91;10233600;28;20050;-77
2023/09/11 12:54:31;;;;;;;14.07;5.57;;;;;;;35.50;32.46;100020.94;10230477;28;20498;-76
2023/09/11 12:59:36;;;;;;;11.10;4.60;;;;;;;35.38;32.61;100016.88;10227757;28;21761;-77
2023/09/11 13:04:41;;;;;;;15.02;4.97;;;;;;;36.29;31.13;100013.91;10222625;28;20146;-77
2023/09/11 13:09:47;;;;;;;9.57;4.65;;;;;;;34.83;32.95;100008.84;10224813;28;20498;-77
2023/09/11 13:14:50;;;;;;;12.73;4.97;;;;;;;34.69;33.29;100002.31;10221686;28;20513;-76
2023/09/11 13:19:53;;;;;;;12.15;4.90;;;;;;;34.90;32.82;100005.72;10218197;28;20051;-76
2023/09/11 13:24:57;;;;;;;10.68;4.88;;;;;;;34.86;32.22;100006.31;10212610;28;20134;-76
2023/09/11 13:30:00;;;;;;;12.77;4.95;;;;;;;34.75;32.61;99998.34;10213077;28;20047;-76
2023/09/11 13:35:04;;;;;;;17.05;5.35;;;;;;;35.08;32.42;99996.63;10211690;28;20043;-77
2023/09/11 13:40:11;;;;;;;12.00;5.03;;;;;;;35.70;32.29;99996.63;10217051;28;20055;-74
2023/09/11 13:45:15;;;;;;;16.23;5.05;;;;;;;35.84;31.54;99986.34;10224906;28;20047;-77
2023/09/11 13:50:18;;;;;;;16.17;6.43;;;;;;;35.12;32.61;99986.50;10223785;28;20057;-77
2023/09/11 13:55:22;;;;;;;15.60;5.47;;;;;;;34.03;34.22;99990.59;10234323;28;20051;-76
2023/09/11 14:00:25;;;;;;;13.18;5.70;;;;;;;35.12;33.10;99977.31;10242280;28;20043;-76
2023/09/11 14:05:28;;;;;;;14.48;5.43;;;;;;;35.28;32.27;99992.72;10232368;28;20087;-77
2023/09/11 14:10:48;;;;;;;12.60;5.20;;;;;;;34.54;33.97;99972.63;10230967;28;20047;-76
2023/09/11 14:15:50;;;;;;;13.70;5.07;;;;;;;34.42;34.21;99973.00;10227909;28;20070;-75
2023/09/11 14:20:53;;;;;;;6.75;4.50;;;;;;;34.80;34.16;99962.84;10228805;28;20423;-76
2023/09/11 14:25:58;;;;;;;12.88;5.32;;;;;;;33.74;34.66;99973.84;10227381;28;20051;-76
2023/09/11 14:31:02;;;;;;;9.18;5.03;;;;;;;33.54;35.39;99963.59;10226959;28;20684;-75
2023/09/11 14:36:05;;;;;;;11.02;5.35;;;;;;;34.45;34.03;99961.28;10222617;28;20058;-75
2023/09/11 14:41:09;;;;;;;14.98;5.10;;;;;;;34.84;33.52;99958.34;10222607;28;20066;-75
2023/09/11 14:46:12;;;;;;;16.08;6.47;;;;;;;34.10;34.57;99954.09;10226221;28;20051;-76
2023/09/11 14:51:16;;;;;;;7.80;5.15;;;;;;;34.90;34.13;99959.13;10221666;28;20189;-75
2023/09/11 14:56:22;;;;;;;9.32;4.90;;;;;;;34.81;34.06;99953.38;10218004;28;20507;-76
2023/09/11 15:01:25;;;;;;;14.77;5.03;;;;;;;34.76;33.70;99944.25;10211595;28;20062;-76
2023/09/11 15:06:28;;;;;;;14.45;5.50;;;;;;;34.39;34.56;99949.34;10208300;28;21270;-75
2023/09/11 15:11:32;;;;;;;11.70;5.47;;;;;;;34.47;34.45;99947.03;10213044;28;20100;-76
2023/09/11 15:16:35;;;;;;;10.63;5.55;;;;;;;33.96;34.90;99940.78;10224946;28;20043;-76
2023/09/11 15:21:38;;;;;;;15.80;5.97;;;;;;;33.84;35.45;99950.63;10227937;28;20059;-76
2023/09/11 15:26:42;;;;;;;12.10;5.57;;;;;;;33.63;35.25;99942.44;10219108;28;20614;-75
2023/09/11 15:31:45;;;;;;;10.57;5.63;;;;;;;34.05;34.26;99942.94;10217868;28;20186;-77
2023/09/11 15:37:13;;;;;;;12.95;5.25;;;;;;;33.85;35.77;99947.56;10224620;28;20047;-76
2023/09/11 15:42:17;;;;;;;14.63;5.25;;;;;;;32.97;36.12;99938.03;10225472;28;20047;-76
2023/09/11 15:47:20;;;;;;;11.52;5.75;;;;;;;33.29;36.62;99934.81;10227259;28;20125;-76
2023/09/11 15:52:23;;;;;;;12.73;4.97;;;;;;;33.46;35.79;99934.44;10235454;28;20113;-76
2023/09/11 15:57:27;;;;;;;12.38;5.40;;;;;;;33.16;36.90;99942.94;10237336;28;20066;-78
2023/09/11 16:02:31;;;;;;;12.25;5.60;;;;;;;32.54;37.41;99950.63;10250498;28;20532;-76
2023/09/11 16:07:34;;;;;;;12.25;5.47;;;;;;;33.09;36.59;99948.81;10242533;28;20555;-76
2023/09/11 16:12:38;;;;;;;17.38;6.13;;;;;;;32.42;38.11;99946.22;10236316;28;20141;-76
2023/09/11 16:17:41;;;;;;;15.45;5.45;;;;;;;32.28;38.79;99949.84;10231724;28;20913;-76
2023/09/11 16:22:44;;;;;;;13.90;5.75;;;;;;;31.60;39.38;99948.09;10227394;28;20054;-76
2023/09/11 16:27:48;;;;;;;16.13;6.30;;;;;;;31.54;40.07;99943.63;10231692;28;20055;-76
2023/09/11 16:32:53;;;;;;;13.57;7.00;;;;;;;31.45;39.24;99945.28;10226227;28;20047;-77
2023/09/11 16:37:57;;;;;;;12.02;6.40;;;;;;;30.91;40.24;99947.31;10231650;28;21077;-76
2023/09/11 16:43:01;;;;;;;11.18;6.22;;;;;;;30.72;40.46;99943.31;10229395;28;20063;-76
2023/09/11 16:48:05;;;;;;;12.40;6.00;;;;;;;30.51;41.57;99947.03;10217372;28;20502;-76
2023/09/11 16:53:08;;;;;;;14.57;6.22;;;;;;;30.44;41.51;99944.50;10226641;28;20057;-76
2023/09/11 16:58:12;;;;;;;14.02;6.72;;;;;;;30.09;42.28;99943.13;10223054;28;20046;-76
2023/09/11 17:03:15;;;;;;;12.65;6.07;;;;;;;29.93;42.36;99938.56;10218377;28;20203;-76
2023/09/11 17:08:18;;;;;;;9.73;6.53;;;;;;;29.77;42.67;99930.09;10231691;28;20066;-76
2023/09/11 17:13:23;;;;;;;15.82;7.20;;;;;;;29.55;43.94;99932.09;10225928;28;20051;-76
2023/09/11 17:18:25;;;;;;;12.85;6.95;;;;;;;29.12;44.68;99934.66;10228254;28;20507;-76
2023/09/11 17:23:28;;;;;;;10.45;6.35;;;;;;;28.77;45.87;99940.56;10230020;28;20177;-76
2023/09/11 17:28:35;;;;;;;10.98;6.00;;;;;;;28.37;47.31;99938.84;10243153;28;20421;-76
2023/09/11 17:33:38;;;;;;;13.27;6.45;;;;;;;28.12;47.46;99935.69;10229757;28;20614;-75
2023/09/11 17:38:41;;;;;;;9.70;6.35;;;;;;;27.94;46.88;99936.72;10230704;28;21157;-76
2023/09/11 17:43:45;;;;;;;13.68;7.78;;;;;;;27.88;47.70;99935.81;10230091;28;20051;-76
2023/09/11 17:48:48;;;;;;;12.48;6.90;;;;;;;27.42;47.98;99945.19;10245969;28;20047;-75
2023/09/11 17:53:51;;;;;;;13.63;6.47;;;;;;;27.25;48.50;99956.13;10230642;28;20066;-76
2023/09/11 17:58:56;;;;;;;13.98;7.18;;;;;;;27.13;48.38;99954.25;10228028;28;20046;-76
2023/09/11 18:03:59;;;;;;;13.95;7.35;;;;;;;27.15;48.41;99962.25;10228887;28;20043;-76
2023/09/11 18:09:02;;;;;;;13.10;7.50;;;;;;;27.05;48.92;99968.41;10244694;28;20439;-75
2023/09/11 18:14:07;;;;;;;16.52;7.65;;;;;;;27.04;48.86;99971.38;10229745;28;20055;-76
2023/09/11 18:19:10;;;;;;;16.65;7.90;;;;;;;26.86;49.15;99969.66;10237662;28;21215;-76
2023/09/11 18:24:13;;;;;;;16.00;8.52;;;;;;;26.77;49.37;99984.81;10219471;28;20419;-75
2023/09/11 18:29:19;;;;;;;17.35;8.05;;;;;;;26.58;50.23;99989.66;10222803;28;20066;-76
2023/09/11 18:34:21;;;;;;;15.88;8.77;;;;;;;26.50;50.82;99986.16;10227058;28;20511;-79
2023/09/11 18:39:26;;;;;;;14.55;8.50;;;;;;;26.48;50.72;99981.97;10224448;28;20181;-80
2023/09/11 18:44:31;;;;;;;9.90;7.10;;;;;;;26.38;51.51;99984.47;10232617;28;20050;-78
2023/09/11 18:49:34;;;;;;;15.48;8.02;;;;;;;26.20;52.00;99990.91;10225833;28;21595;-79
2023/09/11 18:54:36;;;;;;;12.82;7.30;;;;;;;26.10;52.75;99996.16;10246200;28;20137;-80
2023/09/11 18:59:41;;;;;;;13.38;8.40;;;;;;;26.05;52.88;100003.22;10224731;28;20110;-80
2023/09/11 19:04:44;;;;;;;15.20;8.52;;;;;;;26.01;54.03;100003.91;10229462;28;20510;-79
2023/09/11 19:09:47;;;;;;;13.02;8.27;;;;;;;25.83;54.59;100002.03;10237239;28;20128;-78
2023/09/11 19:14:52;;;;;;;17.02;7.60;;;;;;;25.85;54.66;100002.66;10237309;28;20051;-79
2023/09/11 19:19:55;;;;;;;13.77;7.50;;;;;;;25.73;54.96;100015.56;10234520;28;20057;-81
2023/09/11 19:24:59;;;;;;;11.32;7.57;;;;;;;25.55;55.45;100016.38;10237364;28;20058;-80
2023/09/11 19:30:04;;;;;;;13.10;8.02;;;;;;;25.44;56.01;100017.16;10240590;28;20047;-79
2023/09/11 19:35:08;;;;;;;15.43;7.72;;;;;;;25.28;56.51;100021.38;10238788;28;20631;-81
2023/09/11 19:40:11;;;;;;;12.60;8.55;;;;;;;25.18;57.10;100017.28;10239688;28;20051;-80
2023/09/11 19:45:15;;;;;;;15.07;8.30;;;;;;;25.11;57.58;100016.50;10242389;28;20203;-80
2023/09/11 19:50:18;;;;;;;13.50;8.35;;;;;;;24.96;57.91;100025.09;10235388;28;20050;-78
2023/09/11 19:55:22;;;;;;;17.63;8.73;;;;;;;24.90;58.29;100015.03;10231770;28;20055;-81
2023/09/11 20:00:26;;;;;;;12.93;8.73;;;;;;;24.83;58.74;100022.50;10228149;28;20526;-79
2023/09/11 20:05:29;;;;;;;13.82;9.25;;;;;;;24.92;58.39;100025.78;10221434;28;20058;-80
2023/09/11 20:10:32;;;;;;;19.38;9.75;;;;;;;24.92;58.56;100018.38;10258967;28;20062;-80
2023/09/11 20:15:36;;;;;;;14.95;9.55;;;;;;;24.85;58.80;100014.00;10243783;28;20422;-80
2023/09/11 20:20:39;;;;;;;16.35;9.18;;;;;;;24.76;59.27;100013.47;10231277;28;20047;-79
2023/09/11 20:25:42;;;;;;;14.18;9.00;;;;;;;24.53;60.00;100020.44;10234507;28;20173;-81
2023/09/11 20:30:48;;;;;;;16.83;9.60;;;;;;;24.54;60.01;100008.41;10242244;28;20055;-78
2023/09/11 20:35:51;;;;;;;14.02;9.20;;;;;;;24.61;59.50;99994.63;10240305;28;20058;-81
2023/09/11 20:40:54;;;;;;;13.10;9.25;;;;;;;24.41;60.01;100000.31;10249576;28;20097;-80
2023/09/11 20:45:58;;;;;;;12.50;9.65;;;;;;;24.47;60.12;99993.06;10236145;28;20058;-80
2023/09/11 20:51:01;;;;;;;16.20;10.68;;;;;;;24.41;59.97;99994.81;10236991;28;20055;-79
2023/09/11 20:56:06;;;;;;;17.75;10.35;;;;;;;24.25;60.67;100000.84;10237883;28;20078;-79
2023/09/11 21:01:11;;;;;;;12.75;10.50;;;;;;;24.19;60.71;100001.72;10239290;28;20047;-81
2023/09/11 21:06:14;;;;;;;16.48;10.40;;;;;;;24.29;60.48;100010.28;10236660;28;20050;-78
2023/09/11 21:11:22;;;;;;;21.05;10.98;;;;;;;24.29;60.66;100018.53;10238179;28;20051;-78
2023/09/11 21:16:27;;;;;;;12.68;9.95;;;;;;;23.55;63.19;100023.59;10240510;28;20423;-80
2023/09/11 21:21:30;;;;;;;19.95;10.40;;;;;;;22.38;67.93;100022.59;10236651;28;20050;-78
2023/09/11 21:26:33;;;;;;;14.27;10.45;;;;;;;22.48;67.00;100019.47;10244004;28;20178;-78
2023/09/11 21:31:38;;;;;;;16.77;12.15;;;;;;;22.48;67.42;100024.94;10231465;28;20854;-79
2023/09/11 21:36:40;;;;;;;21.65;11.85;;;;;;;22.50;68.52;100020.94;10225145;28;20043;-77
2023/09/11 21:41:43;;;;;;;18.23;12.35;;;;;;;22.92;67.14;100016.00;10237824;28;20055;-79
2023/09/11 21:46:47;;;;;;;13.73;10.68;;;;;;;23.24;66.42;100015.34;10221699;28;20047;-78
2023/09/11 21:51:50;;;;;;;22.98;11.77;;;;;;;23.37;65.73;100012.53;10237519;28;20047;-77
2023/09/11 21:56:53;;;;;;;18.00;11.50;;;;;;;23.39;65.52;100007.66;10225340;28;20055;-79
2023/09/11 22:01:57;;;;;;;15.48;11.57;;;;;;;23.42;64.85;100018.19;10234861;28;20167;-79
2023/09/11 22:07:00;;;;;;;15.90;10.57;;;;;;;22.63;67.92;100027.47;10226915;28;20428;-79
2023/09/11 22:12:04;;;;;;;16.65;11.63;;;;;;;22.73;68.17;100014.16;10234652;28;20047;-79
2023/09/11 22:17:08;;;;;;;20.50;12.30;;;;;;;22.76;67.88;100011.88;10252181;28;21193;-78
2023/09/11 22:22:14;;;;;;;19.20;12.38;;;;;;;22.46;68.67;100032.50;10240651;28;20097;-79
2023/09/11 22:27:17;;;;;;;23.00;13.77;;;;;;;22.46;69.03;100043.44;10234224;28;20051;-77
2023/09/11 22:32:26;;;;;;;18.75;16.15;;;;;;;22.53;68.81;100038.81;10236948;28;21785;-78
2023/09/11 22:37:39;;;;;;;25.88;16.33;;;;;;;21.62;72.52;100061.97;10228436;28;20043;-79
2023/09/11 22:42:42;;;;;;;19.85;15.32;;;;;;;20.67;76.71;100142.63;10232615;28;20047;-77
2023/09/11 22:47:49;;;;;;;15.38;11.27;;;;;;;21.25;69.33;100126.09;10250842;28;20046;-78
2023/09/11 22:52:52;;;;;;;14.43;11.32;;;;;;;22.09;65.95;100133.25;10265000;28;20099;-78
2023/09/11 22:57:54;;;;;;;16.02;10.85;;;;;;;22.15;64.76;100123.38;10230411;28;20055;-78